createdAt,value
2018-07-02T03:01:03.853Z,72.00
2018-07-02T03:02:04.383Z,84.00
2018-07-02T03:03:04.944Z,92.00
2018-07-02T03:04:05.456Z,104.00
2018-07-02T03:06:05.957Z,124.00
2018-07-02T03:08:06.066Z,152.00
2018-07-02T03:09:05.107Z,168.00
2018-07-02T03:10:03.482Z,180.00
2018-07-02T03:11:03.500Z,196.00
2018-07-02T03:12:03.906Z,212.00
2018-07-02T03:13:03.948Z,232.00
2018-07-02T03:14:04.053Z,248.00
2018-07-02T03:15:04.180Z,272.00
2018-07-02T03:16:04.701Z,292.00
2018-07-02T03:17:04.433Z,312.00
2018-07-02T03:18:04.787Z,336.00
2018-07-02T03:19:04.947Z,360.00
2018-07-02T03:20:05.404Z,380.00
2018-07-02T03:21:05.085Z,404.00
2018-07-02T03:22:05.349Z,432.00
2018-07-02T03:23:05.640Z,452.00
2018-07-02T03:24:05.759Z,480.00
2018-07-02T03:25:05.910Z,504.00
2018-07-02T03:26:06.216Z,532.00
2018-07-02T03:27:06.341Z,560.00
2018-07-02T03:28:06.591Z,588.00
2018-07-02T03:29:06.808Z,616.00
2018-07-02T03:30:07.019Z,640.00
2018-07-02T03:31:07.131Z,668.00
2018-07-02T03:32:07.236Z,696.00
2018-07-02T03:33:07.507Z,724.00
2018-07-02T03:34:07.622Z,752.00
2018-07-02T03:35:07.904Z,780.00
2018-07-02T03:36:08.004Z,804.00
2018-07-02T03:37:08.174Z,836.00
2018-07-02T03:38:08.533Z,860.00
2018-07-02T03:39:08.510Z,888.00
2018-07-02T03:40:08.820Z,916.00
2018-07-02T03:41:09.039Z,940.00
2018-07-02T03:42:09.312Z,968.00
2018-07-02T03:43:09.485Z,992.00
2018-07-02T03:44:09.707Z,1020.00
2018-07-02T03:45:09.939Z,1048.00
2018-07-02T03:46:10.020Z,1072.00
2018-07-02T03:47:10.192Z,1096.00
2018-07-02T03:48:10.520Z,1120.00
2018-07-02T03:49:10.535Z,1144.00
2018-07-02T03:50:11.063Z,1168.00
2018-07-02T03:51:11.035Z,1192.00
2018-07-02T03:52:11.079Z,1216.00
2018-07-02T03:53:11.250Z,1236.00
2018-07-02T03:54:11.436Z,1264.00
2018-07-02T03:55:11.573Z,1284.00
2018-07-02T03:56:11.966Z,1304.00
2018-07-02T03:57:12.180Z,1328.00
2018-07-02T03:58:12.161Z,1348.00
2018-07-02T03:59:12.460Z,1372.00
2018-07-02T04:00:12.496Z,1388.00
2018-07-02T04:01:12.699Z,1408.00
2018-07-02T04:02:13.111Z,1432.00
2018-07-02T04:03:13.097Z,1448.00
2018-07-02T04:04:13.330Z,1468.00
2018-07-02T04:05:13.285Z,1488.00
2018-07-02T04:06:13.635Z,1508.00
2018-07-02T04:07:13.736Z,1524.00
2018-07-02T04:08:13.952Z,1544.00
2018-07-02T04:09:14.218Z,1560.00
2018-07-02T04:10:14.364Z,1572.00
2018-07-02T04:11:14.520Z,1596.00
2018-07-02T04:12:14.788Z,1608.00
2018-07-02T04:13:14.880Z,1628.00
2018-07-02T04:14:15.142Z,1640.00
2018-07-02T04:15:15.535Z,1656.00
2018-07-02T04:16:15.738Z,1672.00
2018-07-02T04:17:16.481Z,1688.00
2018-07-02T04:18:15.850Z,1700.00
2018-07-02T04:19:16.752Z,1712.00
2018-07-02T04:20:28.940Z,1728.00
2018-07-02T04:21:19.725Z,1744.00
2018-07-02T04:22:19.498Z,1756.00
2018-07-02T04:23:21.065Z,1768.00
2018-07-02T04:24:24.602Z,1780.00
2018-07-02T04:25:22.379Z,1792.00
2018-07-02T04:26:23.066Z,1804.00
2018-07-02T04:27:20.109Z,1820.00
2018-07-02T04:28:20.417Z,1832.00
2018-07-02T04:29:20.127Z,1844.00
2018-07-02T04:30:17.981Z,1852.00
2018-07-02T04:31:18.031Z,1864.00
2018-07-02T04:32:18.229Z,1880.00
2018-07-02T04:33:18.422Z,1888.00
2018-07-02T04:34:18.857Z,1896.00
2018-07-02T04:35:18.846Z,1912.00
2018-07-02T04:36:19.265Z,1920.00
2018-07-02T04:37:19.134Z,1932.00
2018-07-02T04:38:19.537Z,1940.00
2018-07-02T04:39:19.489Z,1948.00
2018-07-02T04:40:20.119Z,1960.00
2018-07-02T04:41:20.320Z,1968.00
2018-07-02T04:42:20.324Z,1976.00
2018-07-02T04:43:20.208Z,1984.00
2018-07-02T04:44:20.566Z,1996.00
2018-07-02T04:45:20.556Z,2000.00
2018-07-02T04:46:20.809Z,2016.00
2018-07-02T04:47:20.864Z,2020.00
2018-07-02T04:48:21.025Z,2028.00
2018-07-02T04:49:21.218Z,2036.00
2018-07-02T04:50:21.437Z,2044.00
2018-07-02T04:51:21.721Z,2056.00
2018-07-02T04:52:21.820Z,2060.00
2018-07-02T04:53:21.955Z,2068.00
2018-07-02T04:54:22.004Z,2076.00
2018-07-02T04:55:22.312Z,2088.00
2018-07-02T04:56:22.467Z,2092.00
2018-07-02T04:57:22.613Z,2104.00
2018-07-02T04:58:22.847Z,2112.00
2018-07-02T04:59:23.136Z,2116.00
2018-07-02T05:00:23.185Z,2128.00
2018-07-02T05:01:23.435Z,2140.00
2018-07-02T05:02:23.369Z,2148.00
2018-07-02T05:03:23.646Z,2156.00
2018-07-02T05:04:23.829Z,2172.00
2018-07-02T05:05:23.959Z,2180.00
2018-07-02T05:06:24.164Z,2196.00
2018-07-02T05:07:24.322Z,2212.00
2018-07-02T05:08:24.557Z,2232.00
2018-07-02T05:09:24.830Z,2252.00
2018-07-02T05:10:24.900Z,2272.00
2018-07-02T05:11:25.154Z,2296.00
2018-07-02T05:12:25.281Z,2328.00
2018-07-02T05:13:25.593Z,2360.00
2018-07-02T05:14:25.654Z,2396.00
2018-07-02T05:15:25.919Z,2432.00
2018-07-02T05:16:26.032Z,2460.00
2018-07-02T05:17:26.264Z,2492.00
2018-07-02T05:18:26.364Z,2528.00
2018-07-02T05:19:26.530Z,2556.00
2018-07-02T05:20:26.787Z,2580.00
2018-07-02T05:21:26.854Z,2608.00
2018-07-02T05:48:35.896Z,2996.00
2018-07-02T05:51:18.387Z,3032.00
2018-07-02T05:54:46.881Z,3084.00
2018-07-02T05:57:19.961Z,3120.00
2018-07-02T06:00:29.215Z,3144.00
2018-07-02T06:17:00.651Z,3372.00
2018-07-02T06:19:08.051Z,3368.00
2018-07-02T06:48:11.322Z,3788.00
2018-07-02T06:49:10.925Z,3776.00
2018-07-02T06:50:11.365Z,3792.00
2018-07-02T06:51:11.480Z,3808.00
2018-07-02T06:52:12.075Z,3804.00
2018-07-02T06:54:10.674Z,3836.00
2018-07-02T06:55:10.532Z,3848.00
2018-07-02T06:56:10.027Z,3816.00
2018-07-02T06:57:10.270Z,3844.00
2018-07-02T06:58:10.242Z,3880.00
2018-07-02T06:59:29.628Z,3888.00
2018-07-02T07:04:39.511Z,3944.00
2018-07-02T07:05:26.873Z,3956.00
2018-07-02T07:42:48.875Z,4364.00
2018-07-02T08:00:22.387Z,4512.00
2018-07-02T08:01:13.014Z,4540.00
2018-07-02T08:02:14.351Z,4504.00
2018-07-02T08:03:16.953Z,4488.00
2018-07-02T08:04:22.102Z,4508.00
2018-07-02T08:05:22.355Z,4508.00
2018-07-02T08:06:16.510Z,4516.00
2018-07-02T08:07:13.517Z,4524.00
2018-07-02T08:08:11.830Z,4536.00
2018-07-02T08:09:12.046Z,4556.00
2018-07-02T08:10:12.010Z,4560.00
2018-07-02T08:11:12.332Z,4572.00
2018-07-02T08:12:12.407Z,4572.00
2018-07-02T08:13:12.651Z,4580.00
2018-07-02T08:14:12.860Z,4604.00
2018-07-02T08:15:12.991Z,4612.00
2018-07-02T08:16:13.608Z,4616.00
2018-07-02T08:17:13.409Z,4756.00
2018-07-02T08:18:13.381Z,4960.00
2018-07-02T08:19:13.693Z,5172.00
2018-07-02T08:20:13.721Z,5348.00
2018-07-02T08:21:13.953Z,5420.00
2018-07-02T08:22:14.311Z,5452.00
2018-07-02T08:23:14.665Z,5548.00
2018-07-02T08:24:14.622Z,5628.00
2018-07-02T08:25:14.781Z,5672.00
2018-07-02T08:26:15.051Z,5720.00
2018-07-02T08:27:15.180Z,5732.00
2018-07-02T08:28:15.823Z,5776.00
2018-07-02T08:29:15.562Z,5780.00
2018-07-02T08:30:16.013Z,5756.00
2018-07-02T08:31:15.841Z,5748.00
2018-07-02T08:32:16.408Z,5668.00
2018-07-02T08:33:16.087Z,5432.00
2018-07-02T08:34:16.366Z,5232.00
2018-07-02T08:35:17.063Z,5184.00
2018-07-02T08:36:17.617Z,5140.00
2018-07-02T08:37:16.832Z,5084.00
2018-07-02T08:38:17.056Z,4992.00
2018-07-02T08:39:17.262Z,4928.00
2018-07-02T08:40:17.505Z,4928.00
2018-07-02T08:41:17.533Z,4956.00
2018-07-02T08:42:17.954Z,4952.00
2018-07-02T08:43:17.853Z,4984.00
2018-07-02T08:44:19.749Z,5004.00
2018-07-02T08:45:18.212Z,5016.00
2018-07-02T08:46:18.466Z,5104.00
2018-07-02T08:47:18.594Z,5108.00
2018-07-02T08:48:18.821Z,5172.00
2018-07-02T08:49:18.999Z,5136.00
2018-07-02T08:50:19.108Z,5144.00
2018-07-02T08:51:19.364Z,5180.00
2018-07-02T08:52:19.468Z,5216.00
2018-07-02T08:53:19.805Z,5260.00
2018-07-02T08:54:19.821Z,5260.00
2018-07-02T08:55:20.032Z,5296.00
2018-07-02T08:56:20.113Z,5312.00
2018-07-02T08:57:20.337Z,5348.00
2018-07-02T08:58:20.614Z,5380.00
2018-07-02T08:59:21.209Z,5412.00
2018-07-02T09:00:20.982Z,5460.00
2018-07-02T09:01:21.208Z,5500.00
2018-07-02T09:02:21.465Z,5540.00
2018-07-02T09:03:21.473Z,5584.00
2018-07-02T09:04:21.850Z,5688.00
2018-07-02T09:05:22.519Z,5708.00
2018-07-02T09:06:22.400Z,5744.00
2018-07-02T09:07:22.518Z,5788.00
2018-07-02T09:08:22.544Z,5808.00
2018-07-02T09:09:22.862Z,5856.00
2018-07-02T09:10:23.332Z,5908.00
2018-07-02T09:11:24.325Z,5916.00
2018-07-02T09:12:23.435Z,5984.00
2018-07-02T09:13:23.685Z,6016.00
2018-07-02T09:14:23.792Z,6052.00
2018-07-02T09:15:23.749Z,6080.00
2018-07-02T09:16:24.332Z,6156.00
2018-07-02T09:17:24.327Z,6104.00
2018-07-02T09:18:24.460Z,6120.00
2018-07-02T09:19:24.859Z,6156.00
2018-07-02T09:20:24.886Z,6172.00
2018-07-02T09:21:24.997Z,6180.00
2018-07-02T09:22:25.335Z,6188.00
2018-07-02T09:23:25.584Z,6180.00
2018-07-02T09:24:25.412Z,6168.00
2018-07-02T09:25:25.826Z,6188.00
2018-07-02T09:26:26.047Z,6240.00
2018-07-02T09:27:26.098Z,6168.00
2018-07-02T09:28:26.503Z,6156.00
2018-07-02T09:29:26.664Z,6152.00
2018-07-02T09:30:27.166Z,6148.00
2018-07-02T09:31:27.493Z,6120.00
2018-07-02T09:32:28.105Z,6128.00
2018-07-02T09:33:28.490Z,6132.00
2018-07-02T09:34:30.167Z,6100.00
2018-07-02T09:35:28.945Z,6100.00
2018-07-02T09:36:29.567Z,6084.00
2018-07-02T09:37:27.938Z,6096.00
2018-07-02T09:38:28.351Z,6080.00
2018-07-02T09:39:28.352Z,6072.00
2018-07-02T09:40:30.566Z,6060.00
2018-07-02T09:41:29.598Z,6064.00
2018-07-02T09:42:30.029Z,6068.00
2018-07-02T09:43:30.965Z,6052.00
2018-07-02T09:44:29.342Z,6040.00
2018-07-02T09:45:32.489Z,6044.00
2018-07-02T09:46:31.241Z,6048.00
2018-07-02T09:47:29.962Z,6048.00
2018-07-02T09:48:32.264Z,6040.00
2018-07-02T09:49:31.071Z,6048.00
2018-07-02T09:50:31.728Z,6040.00
2018-07-02T09:51:30.747Z,6040.00
2018-07-02T09:52:30.940Z,6060.00
2018-07-02T09:53:30.892Z,6072.00
2018-07-02T09:54:31.445Z,6076.00
2018-07-02T09:55:34.787Z,6096.00
2018-07-02T09:56:33.724Z,6120.00
2018-07-02T09:57:31.580Z,6132.00
2018-07-02T09:58:34.171Z,6140.00
2018-07-02T09:59:32.323Z,6156.00
2018-07-02T10:00:32.609Z,6144.00
2018-07-02T10:01:32.760Z,6164.00
2018-07-02T10:02:34.535Z,6168.00
2018-07-02T10:03:34.417Z,6180.00
2018-07-02T10:04:33.406Z,6204.00
2018-07-02T10:05:34.612Z,6232.00
2018-07-02T10:06:33.599Z,6292.00
2018-07-02T10:07:34.692Z,6388.00
2018-07-02T10:08:33.728Z,6824.00
2018-07-02T10:09:34.097Z,11180.00
2018-07-02T10:10:34.881Z,17920.00
2018-07-02T10:12:01.607Z,24032.00
2018-07-02T10:12:35.916Z,29376.00
2018-07-02T10:13:35.483Z,29600.00
2018-07-02T10:14:34.594Z,28640.00
2018-07-02T10:15:34.768Z,29600.00
2018-07-02T10:16:35.118Z,29728.00
2018-07-02T10:17:35.857Z,30272.00
2018-07-02T10:18:35.529Z,32480.00
2018-07-02T10:19:35.676Z,31712.00
2018-07-02T10:20:37.106Z,29664.00
2018-07-02T10:21:35.954Z,31200.00
2018-07-02T10:22:36.975Z,32416.00
2018-07-02T10:23:37.336Z,32000.00
2018-07-02T10:24:37.108Z,31744.00
2018-07-02T10:25:36.997Z,32672.00
2018-07-02T10:26:37.316Z,35360.00
2018-07-02T10:27:37.458Z,38112.00
2018-07-02T10:28:37.636Z,38464.00
2018-07-02T10:29:37.426Z,38432.00
2018-07-02T10:30:38.555Z,37568.00
2018-07-02T10:31:37.962Z,37696.00
2018-07-02T10:32:38.622Z,37376.00
2018-07-02T10:33:39.259Z,36640.00
2018-07-02T10:34:38.520Z,37408.00
2018-07-02T10:35:38.807Z,38752.00
2018-07-02T10:36:40.743Z,38624.00
2018-07-02T10:37:39.328Z,39072.00
2018-07-02T10:38:41.992Z,38336.00
2018-07-02T10:40:18.361Z,37120.00
2018-07-02T10:42:37.383Z,40128.00
2018-07-02T12:10:27.785Z,60352.00
2018-07-02T12:10:47.940Z,60096.00
2018-07-02T12:15:17.748Z,63136.00
2018-07-02T12:18:16.166Z,62656.00
2018-07-02T12:18:43.866Z,55488.00
2018-07-02T12:19:12.731Z,57952.00
2018-07-02T12:20:11.279Z,58336.00
2018-07-02T12:21:10.924Z,56960.00
2018-07-02T12:22:11.056Z,57664.00
2018-07-02T12:23:11.258Z,60896.00
2018-07-02T12:24:11.474Z,62752.00
2018-07-02T12:25:11.612Z,61440.00
2018-07-02T12:26:11.770Z,60064.00
2018-07-02T12:27:12.043Z,63072.00
2018-07-02T12:28:12.272Z,65152.00
2018-07-02T12:29:12.265Z,64000.00
2018-07-02T12:30:12.437Z,61824.00
2018-07-02T12:31:12.705Z,60896.00
2018-07-02T12:32:12.798Z,62368.00
2018-07-02T12:33:13.135Z,64800.00
2018-07-02T12:34:13.275Z,66944.00
2018-07-02T12:35:13.453Z,66048.00
2018-07-02T12:36:13.544Z,64128.00
2018-07-02T12:37:13.737Z,66816.00
2018-07-02T12:38:13.934Z,66880.00
2018-07-02T12:39:14.159Z,64224.00
2018-07-02T12:40:14.399Z,66144.00
2018-07-02T12:41:14.646Z,71200.00
2018-07-02T12:42:14.688Z,66528.00
2018-07-02T12:43:14.882Z,57856.00
2018-07-02T12:44:15.024Z,65728.00
2018-07-02T12:45:15.269Z,79840.00
2018-07-02T12:46:15.521Z,72736.00
2018-07-02T12:47:15.742Z,53792.00
2018-07-02T12:48:15.832Z,53312.00
2018-07-02T12:49:16.099Z,69120.00
2018-07-02T12:50:16.271Z,70304.00
2018-07-02T12:51:16.599Z,54176.00
2018-07-02T12:52:16.705Z,50720.00
2018-07-02T12:53:16.874Z,58240.00
2018-07-02T12:54:17.167Z,61536.00
2018-07-02T12:55:17.199Z,59616.00
2018-07-02T12:56:17.411Z,56448.00
2018-07-02T12:57:17.538Z,54272.00
2018-07-02T12:58:17.814Z,54560.00
2018-07-02T12:59:17.954Z,53728.00
2018-07-02T13:00:18.141Z,56864.00
2018-07-02T13:01:18.319Z,64096.00
2018-07-02T13:02:18.573Z,67328.00
2018-07-02T13:03:18.671Z,64416.00
2018-07-02T13:04:18.885Z,61984.00
2018-07-02T13:05:19.034Z,61216.00
2018-07-02T13:06:19.250Z,61248.00
2018-07-02T13:07:19.386Z,64416.00
2018-07-02T13:08:19.607Z,69664.00
2018-07-02T13:09:19.776Z,70208.00
2018-07-02T13:10:19.995Z,70592.00
2018-07-02T13:11:20.133Z,66048.00
2018-07-02T13:12:20.284Z,64224.00
2018-07-02T13:13:20.601Z,65440.00
2018-07-02T13:14:20.679Z,68256.00
2018-07-02T13:15:20.829Z,71168.00
2018-07-02T13:16:21.076Z,68096.00
2018-07-02T13:17:21.281Z,62240.00
2018-07-02T13:18:21.576Z,60096.00
2018-07-02T13:19:21.668Z,66336.00
2018-07-02T13:20:21.933Z,71040.00
2018-07-02T13:21:22.015Z,70592.00
2018-07-02T13:22:22.179Z,70144.00
2018-07-02T13:23:22.390Z,69472.00
2018-07-02T13:24:22.520Z,68352.00
2018-07-02T13:25:22.748Z,67264.00
2018-07-02T13:26:22.972Z,70592.00
2018-07-02T13:27:23.088Z,71936.00
2018-07-02T13:28:23.386Z,71008.00
2018-07-02T13:29:23.566Z,69088.00
2018-07-02T13:30:23.755Z,68896.00
2018-07-02T13:31:23.905Z,68160.00
2018-07-02T13:32:24.171Z,67648.00
2018-07-02T13:33:24.214Z,67136.00
2018-07-02T13:34:24.401Z,66688.00
2018-07-02T13:35:24.808Z,67712.00
2018-07-02T13:36:24.893Z,70592.00
2018-07-02T13:37:24.998Z,73248.00
2018-07-02T13:38:25.168Z,71104.00
2018-07-02T13:39:25.498Z,64288.00
2018-07-02T13:40:25.528Z,63872.00
2018-07-02T13:41:25.764Z,71168.00
2018-07-02T13:42:25.959Z,73888.00
2018-07-02T13:43:26.106Z,68256.00
2018-07-02T13:44:26.301Z,64288.00
2018-07-02T13:45:26.509Z,62080.00
2018-07-02T13:46:26.646Z,62784.00
2018-07-02T13:47:26.918Z,62464.00
2018-07-02T13:48:27.126Z,61728.00
2018-07-02T13:49:27.514Z,57120.00
2018-07-02T13:50:27.542Z,53856.00
2018-07-02T13:51:28.026Z,61408.00
2018-07-02T13:52:28.118Z,71552.00
2018-07-02T13:53:28.318Z,72224.00
2018-07-02T13:54:28.582Z,70592.00
2018-07-02T13:55:28.522Z,69536.00
2018-07-02T13:56:28.670Z,63072.00
2018-07-02T13:57:28.785Z,57088.00
2018-07-02T13:58:29.020Z,59776.00
2018-07-02T13:59:30.636Z,63008.00
2018-07-02T14:00:29.941Z,60960.00
2018-07-02T14:01:29.637Z,57792.00
2018-07-02T14:02:29.992Z,59552.00
2018-07-02T14:03:29.977Z,62400.00
2018-07-02T14:04:30.258Z,63968.00
2018-07-02T14:05:30.289Z,65824.00
2018-07-02T14:06:30.455Z,66272.00
2018-07-02T14:07:30.717Z,66848.00
2018-07-02T14:08:30.902Z,66560.00
2018-07-02T14:09:31.207Z,65472.00
2018-07-02T14:10:31.279Z,64192.00
2018-07-02T14:11:31.465Z,61920.00
2018-07-02T14:12:31.764Z,62656.00
2018-07-02T14:13:31.874Z,64928.00
2018-07-02T14:14:32.215Z,65664.00
2018-07-02T14:15:32.335Z,65216.00
2018-07-02T14:16:32.483Z,63680.00
2018-07-02T14:17:32.626Z,64608.00
2018-07-02T14:18:32.899Z,66176.00
2018-07-02T14:19:33.033Z,66560.00
2018-07-02T14:20:33.243Z,63136.00
2018-07-02T14:21:33.291Z,61056.00
2018-07-02T14:22:33.462Z,61376.00
2018-07-02T14:23:33.799Z,64160.00
2018-07-02T14:24:33.843Z,65504.00
2018-07-02T14:25:34.105Z,61728.00
2018-07-02T14:26:34.127Z,59232.00
2018-07-02T14:27:34.621Z,57440.00
2018-07-02T14:28:35.113Z,57056.00
2018-07-02T14:29:34.842Z,59200.00
2018-07-02T14:30:35.111Z,60736.00
2018-07-02T14:31:35.479Z,60032.00
2018-07-02T14:32:35.413Z,58848.00
2018-07-02T14:33:36.085Z,56032.00
2018-07-02T14:34:35.942Z,56800.00
2018-07-02T14:35:36.023Z,58592.00
2018-07-02T14:36:36.414Z,58432.00
2018-07-02T14:37:36.571Z,54976.00
2018-07-02T14:38:36.740Z,53600.00
2018-07-02T14:39:37.146Z,55808.00
2018-07-02T14:40:37.015Z,59232.00
2018-07-02T14:41:37.181Z,60672.00
2018-07-02T14:42:37.475Z,59200.00
2018-07-02T14:43:37.766Z,54336.00
2018-07-02T14:44:38.016Z,51936.00
2018-07-02T14:45:39.164Z,56096.00
2018-07-02T14:46:38.206Z,60832.00
2018-07-02T14:47:38.407Z,58656.00
2018-07-02T14:48:38.625Z,54816.00
2018-07-02T14:49:38.827Z,56032.00
2018-07-02T14:50:39.113Z,56704.00
2018-07-02T14:51:39.258Z,57568.00
2018-07-02T14:52:39.388Z,57920.00
2018-07-02T14:53:39.872Z,56160.00
2018-07-02T14:54:39.886Z,53696.00
2018-07-02T14:55:40.134Z,54528.00
2018-07-02T14:56:40.214Z,56672.00
2018-07-02T14:57:40.564Z,56608.00
2018-07-02T14:58:40.758Z,55520.00
2018-07-02T14:59:40.759Z,55936.00
2018-07-02T15:00:40.927Z,53920.00
2018-07-02T15:01:41.106Z,52384.00
2018-07-02T15:02:41.310Z,51296.00
2018-07-02T15:03:41.509Z,52736.00
2018-07-02T15:04:42.049Z,55584.00
2018-07-02T15:05:41.986Z,58272.00
2018-07-02T15:06:42.039Z,56896.00
2018-07-02T15:07:42.225Z,49152.00
2018-07-02T15:08:42.455Z,44960.00
2018-07-02T15:09:42.652Z,46976.00
2018-07-02T15:10:42.891Z,49824.00
2018-07-02T15:11:43.082Z,49760.00
2018-07-02T15:12:43.212Z,51680.00
2018-07-02T15:13:43.346Z,49376.00
2018-07-02T15:14:43.563Z,46144.00
2018-07-02T15:15:43.785Z,49408.00
2018-07-02T15:16:43.945Z,54080.00
2018-07-02T15:17:44.084Z,51584.00
2018-07-02T15:18:44.273Z,46464.00
2018-07-02T15:19:44.391Z,48064.00
2018-07-02T15:20:44.548Z,51360.00
2018-07-02T15:21:44.794Z,50720.00
2018-07-02T15:22:44.997Z,49888.00
2018-07-02T15:23:45.127Z,49696.00
2018-07-02T15:24:45.282Z,48960.00
2018-07-02T15:25:45.535Z,47360.00
2018-07-02T15:26:45.702Z,46752.00
2018-07-02T15:27:45.865Z,48224.00
2018-07-02T15:28:46.041Z,47520.00
2018-07-02T15:29:46.263Z,46496.00
2018-07-02T15:30:46.408Z,46016.00
2018-07-02T15:31:46.620Z,44928.00
2018-07-02T15:32:46.740Z,44160.00
2018-07-02T15:33:46.966Z,44992.00
2018-07-02T15:34:47.244Z,43872.00
2018-07-02T15:35:47.483Z,43584.00
2018-07-02T15:36:47.550Z,44448.00
2018-07-02T15:37:47.833Z,42720.00
2018-07-02T15:38:47.908Z,42272.00
2018-07-02T15:39:48.114Z,44032.00
2018-07-02T15:40:48.255Z,43872.00
2018-07-02T15:41:48.659Z,41536.00
2018-07-02T15:42:48.747Z,42176.00
2018-07-02T15:43:48.878Z,44704.00
2018-07-02T15:44:50.024Z,41504.00
2018-07-02T15:45:49.333Z,39968.00
2018-07-02T15:46:49.540Z,43744.00
2018-07-02T15:47:49.765Z,41984.00
2018-07-02T15:48:49.902Z,37664.00
2018-07-02T15:49:50.129Z,39616.00
2018-07-02T15:50:50.274Z,39904.00
2018-07-02T15:51:50.395Z,38240.00
2018-07-02T15:52:50.626Z,39104.00
2018-07-02T15:53:50.791Z,39968.00
2018-07-02T15:54:51.006Z,38912.00
2018-07-02T15:55:51.095Z,37728.00
2018-07-02T15:56:51.336Z,38912.00
2018-07-02T15:57:51.456Z,39008.00
2018-07-02T15:58:51.788Z,37984.00
2018-07-02T15:59:52.098Z,36800.00
2018-07-02T16:00:52.126Z,37824.00
2018-07-02T16:01:52.320Z,35808.00
2018-07-02T16:02:52.555Z,32256.00
2018-07-02T16:03:52.742Z,35776.00
2018-07-02T16:04:52.869Z,32064.00
2018-07-02T16:05:53.182Z,30816.00
2018-07-02T16:06:53.309Z,34784.00
2018-07-02T16:07:53.569Z,30912.00
2018-07-02T16:08:53.579Z,34880.00
2018-07-02T16:09:53.884Z,35648.00
2018-07-02T16:10:54.039Z,32064.00
2018-07-02T16:11:54.313Z,33952.00
2018-07-02T16:12:54.420Z,33312.00
2018-07-02T16:13:54.668Z,33696.00
2018-07-02T16:14:54.880Z,33792.00
2018-07-02T16:15:55.169Z,32960.00
2018-07-02T16:16:55.362Z,31360.00
2018-07-02T16:17:55.471Z,31008.00
2018-07-02T16:18:55.638Z,33056.00
2018-07-02T16:19:55.893Z,29504.00
2018-07-02T16:20:56.033Z,28544.00
2018-07-02T16:21:56.201Z,30912.00
2018-07-02T16:22:56.485Z,29600.00
2018-07-02T16:23:56.673Z,27872.00
2018-07-02T16:24:56.806Z,29056.00
2018-07-02T16:25:56.983Z,30528.00
2018-07-02T16:26:57.142Z,28960.00
2018-07-02T16:27:57.385Z,28032.00
2018-07-02T16:28:57.612Z,28448.00
2018-07-02T16:29:57.644Z,28352.00
2018-07-02T16:30:57.914Z,26720.00
2018-07-02T16:31:58.141Z,26208.00
2018-07-02T16:32:58.355Z,27456.00
2018-07-02T16:33:58.404Z,26688.00
2018-07-02T16:34:58.645Z,24576.00
2018-07-02T16:35:58.899Z,24704.00
2018-07-02T16:36:59.035Z,24640.00
2018-07-02T16:37:59.243Z,24864.00
2018-07-02T16:38:59.383Z,24640.00
2018-07-02T16:39:59.553Z,24768.00
2018-07-02T16:40:59.777Z,21760.00
2018-07-02T16:42:00.002Z,19712.00
2018-07-02T16:43:00.066Z,20448.00
2018-07-02T16:44:00.277Z,18720.00
2018-07-02T16:45:00.625Z,19744.00
2018-07-02T16:46:00.607Z,19968.00
2018-07-02T16:47:00.832Z,20192.00
2018-07-02T16:48:01.190Z,19072.00
2018-07-02T16:49:01.172Z,13316.00
2018-07-02T16:50:01.405Z,8652.00
2018-07-02T16:51:01.562Z,7328.00
2018-07-02T16:52:01.736Z,5720.00
2018-07-02T16:53:01.896Z,4084.00
2018-07-02T16:54:02.174Z,3948.00
2018-07-02T16:55:02.302Z,3456.00
2018-07-02T16:56:02.520Z,3388.00
2018-07-02T16:57:02.719Z,3364.00
2018-07-02T16:58:02.913Z,3344.00
2018-07-02T16:59:03.080Z,3340.00
2018-07-02T17:00:03.249Z,3432.00
2018-07-02T17:01:03.392Z,3524.00
2018-07-02T17:02:03.603Z,3440.00
2018-07-02T17:03:03.864Z,3476.00
2018-07-02T17:04:03.986Z,3516.00
2018-07-02T17:05:04.135Z,3468.00
2018-07-02T17:06:04.351Z,3524.00
2018-07-02T17:07:04.505Z,3548.00
2018-07-02T17:08:04.637Z,3436.00
2018-07-02T17:09:04.923Z,3224.00
2018-07-02T17:10:05.127Z,3152.00
2018-07-02T17:11:05.248Z,3164.00
2018-07-02T17:12:05.431Z,3268.00
2018-07-02T17:13:06.145Z,3392.00
2018-07-02T17:14:05.755Z,3292.00
2018-07-02T17:15:05.839Z,3136.00
2018-07-02T17:16:06.039Z,3072.00
2018-07-02T17:17:06.211Z,3052.00
2018-07-02T17:18:06.673Z,3044.00
2018-07-02T17:19:06.563Z,3024.00
2018-07-02T17:20:06.764Z,3004.00
2018-07-02T17:21:07.289Z,2980.00
2018-07-02T17:22:07.327Z,2972.00
2018-07-02T17:23:07.405Z,2944.00
2018-07-02T17:24:07.479Z,2932.00
2018-07-02T17:25:07.637Z,2920.00
2018-07-02T17:26:07.767Z,2912.00
2018-07-02T17:27:07.975Z,2892.00
2018-07-02T17:28:08.043Z,2888.00
2018-07-02T17:29:08.436Z,2868.00
2018-07-02T17:30:08.535Z,2840.00
2018-07-02T17:31:08.719Z,2828.00
2018-07-02T17:32:08.879Z,2816.00
2018-07-02T17:33:09.123Z,2788.00
2018-07-02T17:34:09.253Z,2772.00
2018-07-02T17:35:09.392Z,2760.00
2018-07-02T17:36:09.829Z,2744.00
2018-07-02T17:37:09.899Z,2728.00
2018-07-02T17:38:10.081Z,2716.00
2018-07-02T17:39:10.211Z,2700.00
2018-07-02T17:40:10.439Z,2688.00
2018-07-02T17:41:10.972Z,2672.00
2018-07-02T17:42:10.817Z,2660.00
2018-07-02T17:43:11.077Z,2640.00
2018-07-02T17:44:11.288Z,2628.00
2018-07-02T17:45:11.493Z,2612.00
2018-07-02T17:46:11.508Z,2596.00
2018-07-02T17:47:11.639Z,2580.00
2018-07-02T17:48:11.903Z,2568.00
2018-07-02T17:49:12.054Z,2556.00
2018-07-02T17:50:12.291Z,2536.00
2018-07-02T17:51:13.640Z,2524.00
2018-07-02T17:52:12.749Z,2508.00
2018-07-02T17:53:13.023Z,2492.00
2018-07-02T17:54:13.170Z,2476.00
2018-07-02T17:55:13.467Z,2464.00
2018-07-02T17:56:13.487Z,2448.00
2018-07-02T17:57:13.647Z,2440.00
2018-07-02T17:58:13.957Z,2424.00
2018-07-02T17:59:13.997Z,2400.00
2018-07-02T18:00:14.119Z,2388.00
2018-07-02T18:01:14.402Z,2368.00
2018-07-02T18:02:14.482Z,2356.00
2018-07-02T18:03:14.895Z,2340.00
2018-07-02T18:04:14.933Z,2324.00
2018-07-02T18:05:15.117Z,2304.00
2018-07-02T18:06:15.229Z,2292.00
2018-07-02T18:07:15.554Z,2272.00
2018-07-02T18:08:15.649Z,2260.00
2018-07-02T18:09:15.847Z,2244.00
2018-07-02T18:10:15.996Z,2252.00
2018-07-02T18:11:16.349Z,2264.00
2018-07-02T18:12:16.420Z,2212.00
2018-07-02T18:13:16.535Z,2180.00
2018-07-02T18:14:16.852Z,2160.00
2018-07-02T18:15:17.056Z,2140.00
2018-07-02T18:16:17.447Z,2124.00
2018-07-02T18:17:17.392Z,2112.00
2018-07-02T18:18:17.491Z,2096.00
2018-07-02T18:19:17.759Z,2076.00
2018-07-02T18:20:18.103Z,2060.00
2018-07-02T18:21:18.138Z,2048.00
2018-07-02T18:22:18.208Z,2032.00
2018-07-02T18:23:18.469Z,2016.00
2018-07-02T18:24:18.621Z,1992.00
2018-07-02T18:25:18.738Z,1976.00
2018-07-02T18:26:18.966Z,1952.00
2018-07-02T18:27:19.208Z,1928.00
2018-07-02T18:28:19.434Z,1912.00
2018-07-02T18:29:19.623Z,1892.00
2018-07-02T18:30:19.741Z,1868.00
2018-07-02T18:31:20.037Z,1852.00
2018-07-02T18:32:20.154Z,1832.00
2018-07-02T18:33:20.190Z,1812.00
2018-07-02T18:34:20.445Z,1788.00
2018-07-02T18:35:20.670Z,1768.00
2018-07-02T18:36:21.609Z,1744.00
2018-07-02T18:37:21.008Z,1724.00
2018-07-02T18:38:21.365Z,1700.00
2018-07-02T18:39:21.629Z,1680.00
2018-07-02T18:40:21.624Z,1656.00
2018-07-02T18:41:24.170Z,1632.00
2018-07-02T18:42:23.717Z,1612.00
2018-07-02T18:43:22.928Z,1584.00
2018-07-02T18:44:22.917Z,1568.00
2018-07-02T18:45:23.234Z,1540.00
2018-07-02T18:46:23.203Z,1516.00
2018-07-02T18:51:57.731Z,1384.00
2018-07-02T20:59:57.671Z,0.00
2018-07-02T21:26:15.236Z,0.00
2018-07-02T21:27:07.655Z,0.00
2018-07-02T21:28:14.852Z,0.00
